QFV1 YSSY-YMML
Flight info
| Callsign | QFV1 |
|---|---|
| Flight time | 1h 14m |
| Altitude | 36000 |
| Route | GROOK1/16R WOL H65 LEECE Q29 ML DCT |
| Aircraft | A320/M-SDE3FGHIRWY/LB1 |
Departure
| Time | 2026-05-05 07:24 |
|---|---|
| Airport | Sydney Kingsford Smith International Airport (YSSY) |
Arrival
| Time | 2026-05-05 08:39 |
|---|---|
| Airport | Melbourne Airport (YMML) |
| Time | Latitude | Longitude | Altitude | Speed | Heading |
|---|---|---|---|---|---|
| 2026-05-05 07:07 | -33.93160 | 151.17856 | 30 ft | 0 kts | 190° |
| 2026-05-05 07:15 | -33.93156 | 151.17857 | 30 ft | 1 kts | 190° |
| 2026-05-05 07:16 | -33.93148 | 151.17859 | 14 ft | 1 kts | 190° |
| 2026-05-05 07:16 | -33.93140 | 151.17860 | 30 ft | 1 kts | 190° |
| 2026-05-05 07:16 | -33.93133 | 151.17862 | 30 ft | 1 kts | 190° |
| 2026-05-05 07:16 | -33.93125 | 151.17864 | 30 ft | 1 kts | 191° |
| 2026-05-05 07:17 | -33.93113 | 151.17867 | 30 ft | 2 kts | 197° |
| 2026-05-05 07:17 | -33.93099 | 151.17872 | 30 ft | 2 kts | 202° |
| 2026-05-05 07:17 | -33.93085 | 151.17880 | 30 ft | 2 kts | 219° |
| 2026-05-05 07:17 | -33.93076 | 151.17893 | 30 ft | 2 kts | 264° |
| 2026-05-05 07:18 | -33.93076 | 151.17899 | 30 ft | 0 kts | 277° |
| 2026-05-05 07:19 | -33.93075 | 151.17889 | 30 ft | 4 kts | 277° |
| 2026-05-05 07:20 | -33.93063 | 151.17798 | 30 ft | 17 kts | 280° |
| 2026-05-05 07:20 | -33.93018 | 151.17658 | 30 ft | 13 kts | 288° |
| 2026-05-05 07:20 | -33.92999 | 151.17545 | 30 ft | 16 kts | 281° |
| 2026-05-05 07:20 | -33.92985 | 151.17456 | 27 ft | 11 kts | 280° |
| 2026-05-05 07:21 | -33.92963 | 151.17325 | 21 ft | 19 kts | 284° |
| 2026-05-05 07:21 | -33.92960 | 151.17304 | 22 ft | 0 kts | 280° |
| 2026-05-05 07:21 | -33.92959 | 151.17300 | 22 ft | 0 kts | 280° |
| 2026-05-05 07:22 | -33.92956 | 151.17265 | 20 ft | 8 kts | 270° |
| 2026-05-05 07:22 | -33.92997 | 151.17192 | 20 ft | 5 kts | 192° |
| 2026-05-05 07:22 | -33.93013 | 151.17189 | 20 ft | 5 kts | 188° |
| 2026-05-05 07:22 | -33.93043 | 151.17190 | 19 ft | 0 kts | 168° |
| 2026-05-05 07:23 | -33.93057 | 151.17193 | 19 ft | 9 kts | 168° |
| 2026-05-05 07:24 | -33.93276 | 151.17249 | 21 ft | 67 kts | 167° |
| 2026-05-05 07:24 | -33.93945 | 151.17424 | 17 ft | 126 kts | 167° |
| 2026-05-05 07:24 | -33.94804 | 151.17653 | 302 ft | 142 kts | 167° |
| 2026-05-05 07:24 | -33.95771 | 151.17781 | 984 ft | 138 kts | 179° |
| 2026-05-05 07:25 | -33.96767 | 151.17741 | 1471 ft | 151 kts | 184° |
| 2026-05-05 07:25 | -33.97859 | 151.17657 | 1863 ft | 169 kts | 182° |
| 2026-05-05 07:25 | -33.99086 | 151.17588 | 2211 ft | 190 kts | 182° |
| 2026-05-05 07:25 | -34.00451 | 151.17543 | 2643 ft | 213 kts | 181° |
| 2026-05-05 07:26 | -34.01993 | 151.17529 | 3220 ft | 236 kts | 178° |
| 2026-05-05 07:26 | -34.03692 | 151.17824 | 3980 ft | 254 kts | 167° |
| 2026-05-05 07:26 | -34.05190 | 151.18343 | 4942 ft | 258 kts | 166° |
| 2026-05-05 07:26 | -34.06870 | 151.18920 | 5959 ft | 264 kts | 167° |
| 2026-05-05 07:27 | -34.08633 | 151.19511 | 6905 ft | 273 kts | 167° |
| 2026-05-05 07:27 | -34.10466 | 151.20119 | 7869 ft | 279 kts | 167° |
| 2026-05-05 07:27 | -34.12354 | 151.20746 | 8871 ft | 285 kts | 167° |
| 2026-05-05 07:27 | -34.14254 | 151.21380 | 9980 ft | 287 kts | 168° |
| 2026-05-05 07:28 | -34.16215 | 151.22034 | 10717 ft | 303 kts | 168° |
| 2026-05-05 07:28 | -34.18307 | 151.22454 | 11294 ft | 313 kts | 185° |
| 2026-05-05 07:28 | -34.20408 | 151.21910 | 12253 ft | 309 kts | 206° |
| 2026-05-05 07:28 | -34.21414 | 151.21239 | 12768 ft | 308 kts | 218° |
| 2026-05-05 07:29 | -34.22781 | 151.19649 | 13617 ft | 309 kts | 230° |
| 2026-05-05 07:29 | -34.24189 | 151.17673 | 14459 ft | 314 kts | 230° |
| 2026-05-05 07:29 | -34.25623 | 151.15651 | 15272 ft | 319 kts | 231° |
| 2026-05-05 07:29 | -34.27079 | 151.13598 | 16076 ft | 324 kts | 231° |
| 2026-05-05 07:30 | -34.28533 | 151.11544 | 16874 ft | 329 kts | 231° |
| 2026-05-05 07:30 | -34.31445 | 151.07435 | 18399 ft | 339 kts | 231° |
| 2026-05-05 07:30 | -34.32989 | 151.05256 | 19112 ft | 342 kts | 231° |
| 2026-05-05 07:31 | -34.34515 | 151.03104 | 19827 ft | 345 kts | 231° |
| 2026-05-05 07:31 | -34.36039 | 151.00953 | 20485 ft | 349 kts | 232° |
| 2026-05-05 07:31 | -34.37509 | 150.98993 | 21055 ft | 355 kts | 227° |
| 2026-05-05 07:31 | -34.38713 | 150.97664 | 21474 ft | 360 kts | 224° |
| 2026-05-05 07:32 | -34.39842 | 150.96454 | 21631 ft | 370 kts | 224° |
| 2026-05-05 07:32 | -34.40834 | 150.95383 | 21720 ft | 379 kts | 224° |
| 2026-05-05 07:32 | -34.41209 | 150.94979 | 21750 ft | 383 kts | 224° |
| 2026-05-05 07:33 | -34.42342 | 150.93752 | 21924 ft | 390 kts | 224° |
| 2026-05-05 07:33 | -34.44071 | 150.91877 | 22454 ft | 393 kts | 224° |
| 2026-05-05 07:33 | -34.45522 | 150.90303 | 22918 ft | 396 kts | 224° |
| 2026-05-05 07:33 | -34.46111 | 150.89665 | 23097 ft | 397 kts | 224° |
| 2026-05-05 07:34 | -34.47165 | 150.88521 | 23408 ft | 400 kts | 224° |
| 2026-05-05 07:35 | -34.48131 | 150.87471 | 23698 ft | 402 kts | 224° |
| 2026-05-05 07:35 | -34.48844 | 150.86697 | 23880 ft | 404 kts | 225° |
| 2026-05-05 07:35 | -34.49915 | 150.85535 | 24153 ft | 405 kts | 224° |
| 2026-05-05 07:36 | -34.52049 | 150.83227 | 24855 ft | 404 kts | 225° |
| 2026-05-05 07:36 | -34.54079 | 150.81021 | 25332 ft | 408 kts | 226° |
| 2026-05-05 07:36 | -34.56051 | 150.78587 | 25841 ft | 408 kts | 232° |
| 2026-05-05 07:36 | -34.57635 | 150.76131 | 26301 ft | 408 kts | 238° |
| 2026-05-05 07:37 | -34.59114 | 150.73647 | 26761 ft | 412 kts | 237° |
| 2026-05-05 07:37 | -34.60727 | 150.70967 | 27216 ft | 415 kts | 237° |
| 2026-05-05 07:37 | -34.62451 | 150.68114 | 27720 ft | 417 kts | 237° |
| 2026-05-05 07:37 | -34.64148 | 150.65301 | 28172 ft | 420 kts | 238° |
| 2026-05-05 07:38 | -34.65892 | 150.62407 | 28636 ft | 423 kts | 238° |
| 2026-05-05 07:38 | -34.67569 | 150.59620 | 29070 ft | 426 kts | 238° |
| 2026-05-05 07:38 | -34.69360 | 150.56638 | 29483 ft | 428 kts | 238° |
| 2026-05-05 07:38 | -34.71121 | 150.53703 | 29902 ft | 431 kts | 238° |
| 2026-05-05 07:39 | -34.72866 | 150.50792 | 30319 ft | 434 kts | 238° |
| 2026-05-05 07:39 | -34.74647 | 150.47822 | 30674 ft | 436 kts | 239° |
| 2026-05-05 07:39 | -34.76381 | 150.44926 | 31059 ft | 438 kts | 238° |
| 2026-05-05 07:39 | -34.78183 | 150.41913 | 31404 ft | 440 kts | 239° |
| 2026-05-05 07:40 | -34.79980 | 150.38909 | 31873 ft | 439 kts | 239° |
| 2026-05-05 07:40 | -34.81770 | 150.35913 | 32416 ft | 437 kts | 239° |
| 2026-05-05 07:40 | -34.83523 | 150.32977 | 32864 ft | 436 kts | 239° |
| 2026-05-05 07:40 | -34.85133 | 150.30278 | 33276 ft | 435 kts | 240° |
| 2026-05-05 07:41 | -34.86905 | 150.27307 | 33777 ft | 434 kts | 240° |
| 2026-05-05 07:41 | -34.88677 | 150.24335 | 34210 ft | 433 kts | 240° |
| 2026-05-05 07:41 | -34.90442 | 150.21369 | 34571 ft | 432 kts | 240° |
| 2026-05-05 07:41 | -34.92199 | 150.18413 | 34949 ft | 430 kts | 240° |
| 2026-05-05 07:42 | -34.93904 | 150.15537 | 35275 ft | 430 kts | 240° |
| 2026-05-05 07:42 | -34.95652 | 150.12586 | 35580 ft | 430 kts | 240° |
| 2026-05-05 07:42 | -34.97327 | 150.09755 | 35927 ft | 430 kts | 240° |
| 2026-05-05 07:42 | -34.99051 | 150.06837 | 36143 ft | 430 kts | 240° |
| 2026-05-05 07:43 | -35.02506 | 150.00991 | 36184 ft | 427 kts | 240° |
| 2026-05-05 07:43 | -35.05855 | 149.95319 | 36181 ft | 427 kts | 240° |
| 2026-05-05 07:44 | -35.09329 | 149.89424 | 36189 ft | 428 kts | 240° |
| 2026-05-05 07:44 | -35.12791 | 149.83545 | 36195 ft | 428 kts | 239° |
| 2026-05-05 07:45 | -35.16256 | 149.77649 | 36195 ft | 429 kts | 239° |
| 2026-05-05 07:45 | -35.19713 | 149.71760 | 36190 ft | 430 kts | 239° |
| 2026-05-05 07:46 | -35.23196 | 149.65814 | 36202 ft | 430 kts | 239° |
| 2026-05-05 07:46 | -35.26681 | 149.59854 | 36201 ft | 431 kts | 239° |
| 2026-05-05 07:47 | -35.30137 | 149.53932 | 36184 ft | 428 kts | 239° |
| 2026-05-05 07:47 | -35.33600 | 149.47989 | 36183 ft | 428 kts | 239° |
| 2026-05-05 07:48 | -35.36897 | 149.42322 | 36184 ft | 428 kts | 239° |
| 2026-05-05 07:48 | -35.40327 | 149.36419 | 36184 ft | 428 kts | 239° |
| 2026-05-05 07:49 | -35.43739 | 149.30534 | 36186 ft | 426 kts | 239° |
| 2026-05-05 07:49 | -35.47139 | 149.24665 | 36177 ft | 423 kts | 239° |
| 2026-05-05 07:50 | -35.50543 | 149.18770 | 36179 ft | 427 kts | 239° |
| 2026-05-05 07:50 | -35.53945 | 149.12878 | 36180 ft | 427 kts | 239° |
| 2026-05-05 07:51 | -35.57383 | 149.06911 | 36180 ft | 426 kts | 239° |
| 2026-05-05 07:51 | -35.60789 | 149.00986 | 36177 ft | 424 kts | 239° |
| 2026-05-05 07:52 | -35.64192 | 148.95055 | 36180 ft | 426 kts | 239° |
| 2026-05-05 07:52 | -35.67593 | 148.89124 | 36183 ft | 425 kts | 239° |
| 2026-05-05 07:53 | -35.70995 | 148.83179 | 36196 ft | 425 kts | 239° |
| 2026-05-05 07:53 | -35.74358 | 148.77292 | 36189 ft | 423 kts | 239° |
| 2026-05-05 07:54 | -35.77740 | 148.71360 | 36185 ft | 423 kts | 239° |
| 2026-05-05 07:54 | -35.81070 | 148.65510 | 36201 ft | 423 kts | 239° |
| 2026-05-05 07:55 | -35.84045 | 148.60276 | 36199 ft | 423 kts | 239° |
| 2026-05-05 07:55 | -35.87419 | 148.54329 | 36218 ft | 423 kts | 239° |
| 2026-05-05 07:56 | -35.90762 | 148.48418 | 36214 ft | 423 kts | 239° |
| 2026-05-05 07:56 | -35.93947 | 148.42756 | 36219 ft | 422 kts | 239° |
| 2026-05-05 07:57 | -35.97296 | 148.36796 | 36213 ft | 422 kts | 239° |
| 2026-05-05 07:57 | -36.00615 | 148.30884 | 36223 ft | 422 kts | 239° |
| 2026-05-05 07:58 | -36.03955 | 148.24924 | 36232 ft | 421 kts | 239° |
| 2026-05-05 07:58 | -36.07290 | 148.18963 | 36225 ft | 422 kts | 239° |
| 2026-05-05 07:59 | -36.10603 | 148.13030 | 36223 ft | 422 kts | 239° |
| 2026-05-05 07:59 | -36.13915 | 148.07098 | 36223 ft | 422 kts | 239° |
| 2026-05-05 08:00 | -36.17229 | 148.01174 | 36222 ft | 422 kts | 239° |
| 2026-05-05 08:00 | -36.20560 | 147.95209 | 36220 ft | 421 kts | 239° |
| 2026-05-05 08:01 | -36.23886 | 147.89237 | 36214 ft | 421 kts | 239° |
| 2026-05-05 08:01 | -36.27209 | 147.83261 | 36216 ft | 422 kts | 238° |
| 2026-05-05 08:02 | -36.30533 | 147.77274 | 36212 ft | 422 kts | 238° |
| 2026-05-05 08:02 | -36.33827 | 147.71330 | 36211 ft | 422 kts | 238° |
| 2026-05-05 08:03 | -36.37141 | 147.65324 | 36222 ft | 422 kts | 239° |
| 2026-05-05 08:03 | -36.40456 | 147.59303 | 36249 ft | 423 kts | 238° |
| 2026-05-05 08:04 | -36.43777 | 147.53261 | 36138 ft | 424 kts | 238° |
| 2026-05-05 08:04 | -36.45441 | 147.50231 | 35897 ft | 425 kts | 238° |
| 2026-05-05 08:04 | -36.47102 | 147.47202 | 35652 ft | 424 kts | 238° |
| 2026-05-05 08:05 | -36.48744 | 147.44208 | 35502 ft | 427 kts | 238° |
| 2026-05-05 08:05 | -36.50416 | 147.41155 | 35727 ft | 428 kts | 238° |
| 2026-05-05 08:05 | -36.52090 | 147.38096 | 36079 ft | 427 kts | 238° |
| 2026-05-05 08:05 | -36.53754 | 147.35056 | 36222 ft | 425 kts | 238° |
| 2026-05-05 08:06 | -36.57070 | 147.28980 | 35922 ft | 424 kts | 238° |
| 2026-05-05 08:06 | -36.58723 | 147.25949 | 35680 ft | 424 kts | 238° |
| 2026-05-05 08:06 | -36.60380 | 147.22906 | 35439 ft | 424 kts | 238° |
| 2026-05-05 08:07 | -36.62031 | 147.19873 | 35197 ft | 425 kts | 238° |
| 2026-05-05 08:07 | -36.63672 | 147.16853 | 34962 ft | 425 kts | 238° |
| 2026-05-05 08:07 | -36.65324 | 147.13812 | 34728 ft | 426 kts | 237° |
| 2026-05-05 08:07 | -36.66983 | 147.10754 | 34496 ft | 426 kts | 237° |
| 2026-05-05 08:08 | -36.68616 | 147.07741 | 34269 ft | 427 kts | 237° |
| 2026-05-05 08:08 | -36.70278 | 147.04673 | 34003 ft | 427 kts | 237° |
| 2026-05-05 08:08 | -36.71378 | 147.02640 | 33822 ft | 428 kts | 237° |
| 2026-05-05 08:08 | -36.73605 | 146.98522 | 33458 ft | 429 kts | 237° |
| 2026-05-05 08:09 | -36.74709 | 146.96478 | 33279 ft | 429 kts | 236° |
| 2026-05-05 08:09 | -36.76378 | 146.93386 | 33010 ft | 430 kts | 236° |
| 2026-05-05 08:09 | -36.78592 | 146.89282 | 32670 ft | 431 kts | 236° |
| 2026-05-05 08:09 | -36.80267 | 146.86174 | 32426 ft | 432 kts | 236° |
| 2026-05-05 08:10 | -36.81940 | 146.83066 | 32148 ft | 432 kts | 236° |
| 2026-05-05 08:10 | -36.83617 | 146.79947 | 31892 ft | 434 kts | 236° |
| 2026-05-05 08:10 | -36.84731 | 146.77875 | 31730 ft | 434 kts | 236° |
| 2026-05-05 08:10 | -36.86983 | 146.73680 | 31390 ft | 435 kts | 236° |
| 2026-05-05 08:11 | -36.88670 | 146.70536 | 31151 ft | 436 kts | 236° |
| 2026-05-05 08:11 | -36.89786 | 146.68453 | 30985 ft | 436 kts | 236° |
| 2026-05-05 08:11 | -36.92022 | 146.64277 | 30320 ft | 436 kts | 235° |
| 2026-05-05 08:11 | -36.93698 | 146.61142 | 29714 ft | 431 kts | 235° |
| 2026-05-05 08:12 | -36.95350 | 146.58052 | 29165 ft | 423 kts | 235° |
| 2026-05-05 08:12 | -36.96970 | 146.55017 | 28620 ft | 416 kts | 235° |
| 2026-05-05 08:12 | -36.98028 | 146.53034 | 28274 ft | 411 kts | 235° |
| 2026-05-05 08:12 | -37.00127 | 146.49096 | 27576 ft | 402 kts | 235° |
| 2026-05-05 08:13 | -37.01149 | 146.47177 | 27236 ft | 398 kts | 235° |
| 2026-05-05 08:13 | -37.02675 | 146.44311 | 26721 ft | 393 kts | 235° |
| 2026-05-05 08:13 | -37.04179 | 146.41483 | 26215 ft | 388 kts | 235° |
| 2026-05-05 08:13 | -37.06139 | 146.37793 | 25556 ft | 382 kts | 235° |
| 2026-05-05 08:14 | -37.07128 | 146.35931 | 25218 ft | 379 kts | 235° |
| 2026-05-05 08:14 | -37.08578 | 146.33199 | 24716 ft | 375 kts | 235° |
| 2026-05-05 08:14 | -37.10015 | 146.30489 | 24366 ft | 377 kts | 235° |
| 2026-05-05 08:14 | -37.11491 | 146.27706 | 24257 ft | 397 kts | 235° |
| 2026-05-05 08:15 | -37.13019 | 146.24820 | 24232 ft | 397 kts | 235° |
| 2026-05-05 08:15 | -37.14543 | 146.21936 | 24235 ft | 396 kts | 235° |
| 2026-05-05 08:15 | -37.16064 | 146.19058 | 24227 ft | 396 kts | 235° |
| 2026-05-05 08:15 | -37.17585 | 146.16175 | 24230 ft | 396 kts | 235° |
| 2026-05-05 08:16 | -37.19106 | 146.13292 | 24230 ft | 395 kts | 235° |
| 2026-05-05 08:16 | -37.20620 | 146.10419 | 24227 ft | 395 kts | 235° |
| 2026-05-05 08:16 | -37.22135 | 146.07543 | 24226 ft | 395 kts | 235° |
| 2026-05-05 08:16 | -37.23630 | 146.04702 | 24235 ft | 395 kts | 235° |
| 2026-05-05 08:17 | -37.25081 | 146.01944 | 24227 ft | 395 kts | 235° |
| 2026-05-05 08:17 | -37.26593 | 145.99070 | 24229 ft | 395 kts | 236° |
| 2026-05-05 08:17 | -37.28107 | 145.96188 | 24231 ft | 395 kts | 236° |
| 2026-05-05 08:17 | -37.29597 | 145.93347 | 24229 ft | 395 kts | 236° |
| 2026-05-05 08:18 | -37.31107 | 145.90466 | 24239 ft | 394 kts | 236° |
| 2026-05-05 08:18 | -37.32615 | 145.87593 | 24239 ft | 394 kts | 236° |
| 2026-05-05 08:18 | -37.34125 | 145.84718 | 24235 ft | 394 kts | 236° |
| 2026-05-05 08:18 | -37.35635 | 145.81840 | 24237 ft | 394 kts | 236° |
| 2026-05-05 08:19 | -37.37141 | 145.78966 | 24232 ft | 394 kts | 236° |
| 2026-05-05 08:19 | -37.38653 | 145.76081 | 24230 ft | 396 kts | 236° |
| 2026-05-05 08:19 | -37.40167 | 145.73189 | 24239 ft | 396 kts | 236° |
| 2026-05-05 08:19 | -37.41624 | 145.70402 | 24233 ft | 395 kts | 236° |
| 2026-05-05 08:20 | -37.43133 | 145.67513 | 24232 ft | 395 kts | 236° |
| 2026-05-05 08:20 | -37.44563 | 145.64554 | 24240 ft | 396 kts | 241° |
| 2026-05-05 08:20 | -37.45699 | 145.61396 | 24243 ft | 397 kts | 248° |
| 2026-05-05 08:20 | -37.46573 | 145.58141 | 24236 ft | 398 kts | 250° |
| 2026-05-05 08:21 | -37.47445 | 145.54840 | 24240 ft | 398 kts | 250° |
| 2026-05-05 08:21 | -37.48326 | 145.51537 | 24233 ft | 398 kts | 250° |
| 2026-05-05 08:21 | -37.49202 | 145.48252 | 24237 ft | 389 kts | 250° |
| 2026-05-05 08:21 | -37.49754 | 145.46174 | 24236 ft | 377 kts | 250° |
| 2026-05-05 08:22 | -37.50164 | 145.44629 | 24240 ft | 368 kts | 250° |
| 2026-05-05 08:22 | -37.50953 | 145.41645 | 24241 ft | 350 kts | 250° |
| 2026-05-05 08:22 | -37.51640 | 145.38808 | 24234 ft | 334 kts | 252° |
| 2026-05-05 08:23 | -37.52266 | 145.36108 | 24236 ft | 318 kts | 252° |
| 2026-05-05 08:23 | -37.52862 | 145.33503 | 24231 ft | 302 kts | 252° |
| 2026-05-05 08:23 | -37.53430 | 145.31010 | 24234 ft | 291 kts | 252° |
| 2026-05-05 08:23 | -37.53980 | 145.28583 | 24035 ft | 286 kts | 252° |
| 2026-05-05 08:24 | -37.54527 | 145.26171 | 23631 ft | 287 kts | 252° |
| 2026-05-05 08:24 | -37.55080 | 145.23753 | 23164 ft | 287 kts | 252° |
| 2026-05-05 08:24 | -37.55635 | 145.21342 | 22790 ft | 285 kts | 252° |
| 2026-05-05 08:24 | -37.56188 | 145.18952 | 22398 ft | 283 kts | 252° |
| 2026-05-05 08:25 | -37.56740 | 145.16578 | 22015 ft | 282 kts | 252° |
| 2026-05-05 08:25 | -37.57292 | 145.14215 | 21644 ft | 280 kts | 252° |
| 2026-05-05 08:25 | -37.57835 | 145.11897 | 21280 ft | 279 kts | 252° |
| 2026-05-05 08:25 | -37.58248 | 145.09522 | 20888 ft | 279 kts | 268° |
| 2026-05-05 08:26 | -37.57873 | 145.07125 | 20478 ft | 283 kts | 293° |
| 2026-05-05 08:26 | -37.56676 | 145.05158 | 20078 ft | 287 kts | 320° |
| 2026-05-05 08:26 | -37.54889 | 145.04038 | 19700 ft | 291 kts | 346° |
| 2026-05-05 08:26 | -37.52877 | 145.04003 | 19302 ft | 292 kts | 12° |
| 2026-05-05 08:27 | -37.51045 | 145.05044 | 18765 ft | 291 kts | 39° |
| 2026-05-05 08:27 | -37.49759 | 145.06974 | 18185 ft | 289 kts | 66° |
| 2026-05-05 08:27 | -37.49282 | 145.09389 | 17567 ft | 284 kts | 93° |
| 2026-05-05 08:27 | -37.49655 | 145.11789 | 16981 ft | 279 kts | 109° |
| 2026-05-05 08:28 | -37.49843 | 145.14213 | 16412 ft | 281 kts | 83° |
| 2026-05-05 08:28 | -37.49169 | 145.16511 | 15853 ft | 282 kts | 55° |
| 2026-05-05 08:28 | -37.47786 | 145.18184 | 15304 ft | 281 kts | 28° |
| 2026-05-05 08:28 | -37.45960 | 145.18922 | 14762 ft | 276 kts | 0° |
| 2026-05-05 08:29 | -37.44106 | 145.18553 | 14242 ft | 268 kts | 334° |
| 2026-05-05 08:29 | -37.42406 | 145.17601 | 13727 ft | 266 kts | 332° |
| 2026-05-05 08:29 | -37.40876 | 145.16374 | 13199 ft | 258 kts | 309° |
| 2026-05-05 08:30 | -37.40068 | 145.12493 | 12387 ft | 227 kts | 249° |
| 2026-05-05 08:30 | -37.40620 | 145.10642 | 11910 ft | 226 kts | 247° |
| 2026-05-05 08:30 | -37.41134 | 145.08784 | 11483 ft | 224 kts | 250° |
| 2026-05-05 08:30 | -37.41560 | 145.06926 | 11074 ft | 223 kts | 252° |
| 2026-05-05 08:31 | -37.41933 | 145.05026 | 10547 ft | 227 kts | 255° |
| 2026-05-05 08:31 | -37.42290 | 145.03039 | 9753 ft | 240 kts | 255° |
| 2026-05-05 08:31 | -37.42654 | 145.00924 | 8803 ft | 256 kts | 256° |
| 2026-05-05 08:31 | -37.43039 | 144.98670 | 7845 ft | 268 kts | 257° |
| 2026-05-05 08:32 | -37.43417 | 144.96437 | 7545 ft | 251 kts | 257° |
| 2026-05-05 08:32 | -37.43764 | 144.94378 | 7274 ft | 236 kts | 257° |
| 2026-05-05 08:32 | -37.44098 | 144.92403 | 6780 ft | 234 kts | 257° |
| 2026-05-05 08:32 | -37.44436 | 144.90404 | 6231 ft | 233 kts | 257° |
| 2026-05-05 08:33 | -37.44772 | 144.88414 | 5713 ft | 231 kts | 257° |
| 2026-05-05 08:33 | -37.45106 | 144.86444 | 5205 ft | 229 kts | 257° |
| 2026-05-05 08:33 | -37.45442 | 144.84465 | 4726 ft | 228 kts | 257° |
| 2026-05-05 08:33 | -37.45752 | 144.82635 | 4614 ft | 206 kts | 256° |
| 2026-05-05 08:34 | -37.46380 | 144.81130 | 4311 ft | 194 kts | 219° |
| 2026-05-05 08:34 | -37.47607 | 144.80581 | 4022 ft | 186 kts | 186° |
| 2026-05-05 08:34 | -37.48882 | 144.80620 | 3758 ft | 181 kts | 175° |
| 2026-05-05 08:34 | -37.50099 | 144.80819 | 3519 ft | 172 kts | 173° |
| 2026-05-05 08:35 | -37.51255 | 144.81027 | 3274 ft | 164 kts | 173° |
| 2026-05-05 08:35 | -37.52160 | 144.81187 | 3097 ft | 158 kts | 173° |
| 2026-05-05 08:35 | -37.53130 | 144.81359 | 2906 ft | 153 kts | 173° |
| 2026-05-05 08:35 | -37.54169 | 144.81544 | 2702 ft | 148 kts | 174° |
| 2026-05-05 08:36 | -37.55146 | 144.81718 | 2521 ft | 143 kts | 174° |
| 2026-05-05 08:36 | -37.56081 | 144.81884 | 2330 ft | 130 kts | 174° |
| 2026-05-05 08:36 | -37.56982 | 144.82042 | 2156 ft | 132 kts | 174° |
| 2026-05-05 08:36 | -37.57877 | 144.82201 | 1976 ft | 129 kts | 174° |
| 2026-05-05 08:37 | -37.58767 | 144.82359 | 1800 ft | 129 kts | 174° |
| 2026-05-05 08:37 | -37.59658 | 144.82520 | 1614 ft | 130 kts | 173° |
| 2026-05-05 08:37 | -37.60550 | 144.82683 | 1431 ft | 130 kts | 173° |
| 2026-05-05 08:37 | -37.61442 | 144.82850 | 1244 ft | 130 kts | 173° |
| 2026-05-05 08:38 | -37.62341 | 144.83001 | 1029 ft | 130 kts | 174° |
| 2026-05-05 08:38 | -37.63219 | 144.83142 | 886 ft | 131 kts | 174° |
| 2026-05-05 08:38 | -37.64125 | 144.83299 | 686 ft | 131 kts | 174° |
| 2026-05-05 08:38 | -37.65034 | 144.83448 | 556 ft | 133 kts | 173° |
| 2026-05-05 08:39 | -37.65931 | 144.83613 | 413 ft | 127 kts | 174° |
| 2026-05-05 08:39 | -37.66632 | 144.83732 | 390 ft | 89 kts | 169° |
| 2026-05-05 08:39 | -37.67005 | 144.83828 | 381 ft | 15 kts | 147° |
| 2026-05-05 08:39 | -37.67104 | 144.83927 | 377 ft | 20 kts | 141° |
| 2026-05-05 08:40 | -37.67199 | 144.84022 | 371 ft | 0 kts | 141° |
| 2026-05-05 08:42 | -37.67211 | 144.84042 | 370 ft | 8 kts | 121° |
| 2026-05-05 08:42 | -37.67218 | 144.84158 | 368 ft | 19 kts | 76° |
| 2026-05-05 08:42 | -37.67110 | 144.84245 | 370 ft | 20 kts | 1° |
| 2026-05-05 08:42 | -37.66963 | 144.84226 | 372 ft | 22 kts | 352° |
| 2026-05-05 08:43 | -37.66809 | 144.84198 | 374 ft | 19 kts | 352° |
| 2026-05-05 08:43 | -37.66702 | 144.84233 | 372 ft | 19 kts | 60° |
| 2026-05-05 08:43 | -37.66677 | 144.84403 | 364 ft | 5 kts | 80° |
| 2026-05-05 08:43 | -37.66677 | 144.84407 | 365 ft | 3 kts | 80° |
| 2026-05-05 08:44 | -37.66692 | 144.84446 | 366 ft | 8 kts | 123° |
| 2026-05-05 08:44 | -37.66739 | 144.84513 | 360 ft | 1 kts | 137° |
| 2026-05-05 08:44 | -37.66753 | 144.84530 | 364 ft | 0 kts | 137° |